createdAt,value
2022-11-10T00:01:58.636Z,98809.66
2022-11-10T00:04:25.320Z,98817.88
2022-11-10T00:06:52.012Z,98817.72
2022-11-10T00:09:18.610Z,98828.63
2022-11-10T00:11:46.094Z,98818.09
2022-11-10T00:14:27.977Z,98828.44
2022-11-10T00:17:01.995Z,98817.22
2022-11-10T00:19:29.204Z,98826.09
2022-11-10T00:22:00.248Z,98818.56
2022-11-10T00:24:27.917Z,98824.72
2022-11-10T00:26:55.689Z,98822.09
2022-11-10T00:29:22.612Z,98813.75
2022-11-10T00:31:49.212Z,98814.41
2022-11-10T00:34:17.018Z,98816.03
2022-11-10T00:36:44.285Z,98825.09
2022-11-10T00:39:14.562Z,98826.38
2022-11-10T00:41:41.202Z,98819.94
2022-11-10T00:44:07.783Z,98829.00
2022-11-10T00:46:34.574Z,98829.00
2022-11-10T00:49:01.102Z,98820.53
2022-11-10T00:51:29.589Z,98824.53
2022-11-10T00:53:56.281Z,98827.34
2022-11-10T00:56:23.618Z,98832.63
2022-11-10T00:58:50.694Z,98842.94
2022-11-10T01:01:19.612Z,98835.72
2022-11-10T01:03:46.259Z,98840.97
2022-11-10T01:06:15.988Z,98837.69
2022-11-10T01:08:43.711Z,98844.97
2022-11-10T01:11:16.649Z,98841.22
2022-11-10T01:13:44.592Z,98843.88
2022-11-10T01:16:14.395Z,98855.19
2022-11-10T01:18:41.105Z,98854.81
2022-11-10T01:21:08.299Z,98859.53
2022-11-10T01:23:35.391Z,98865.56
2022-11-10T01:26:04.939Z,98855.69
2022-11-10T01:28:32.975Z,98865.50
2022-11-10T01:31:00.114Z,98854.53
2022-11-10T01:33:27.488Z,98859.16
2022-11-10T01:35:54.741Z,98880.66
2022-11-10T01:38:22.037Z,98865.94
2022-11-10T01:40:48.839Z,98867.31
2022-11-10T01:43:15.838Z,98863.25
2022-11-10T01:45:53.434Z,98869.50
2022-11-10T01:48:31.700Z,98873.03
2022-11-10T01:51:02.567Z,98866.50
2022-11-10T01:53:31.802Z,98871.16
2022-11-10T01:55:59.329Z,98870.88
2022-11-10T01:58:32.929Z,98873.31
2022-11-10T02:00:59.606Z,98873.31
2022-11-10T02:03:35.556Z,98874.31
2022-11-10T02:06:02.476Z,98875.94
2022-11-10T02:08:29.531Z,98875.75
2022-11-10T02:10:56.153Z,98877.38
2022-11-10T02:13:23.099Z,98876.59
2022-11-10T02:15:50.238Z,98876.59
2022-11-10T02:18:17.061Z,98887.91
2022-11-10T02:20:45.331Z,98882.66
2022-11-10T02:23:28.481Z,98887.91
2022-11-10T02:25:55.244Z,98892.38
2022-11-10T02:28:22.403Z,98890.34
2022-11-10T02:30:49.378Z,98892.97
2022-11-10T02:33:17.850Z,98889.97
2022-11-10T02:35:46.579Z,98901.31
2022-11-10T02:38:14.539Z,98913.28
2022-11-10T02:40:41.413Z,98923.25
2022-11-10T02:43:11.607Z,98922.44
2022-11-10T02:45:45.585Z,98922.44
2022-11-10T02:48:14.223Z,98924.53
2022-11-10T02:50:41.526Z,98929.97
2022-11-10T02:53:08.744Z,98929.34
2022-11-10T02:55:35.429Z,98924.72
2022-11-10T02:58:02.049Z,98924.53
2022-11-10T03:00:28.640Z,98928.19
2022-11-10T03:02:57.949Z,98930.63
2022-11-10T03:05:24.748Z,98927.00
2022-11-10T03:07:55.470Z,98934.25
2022-11-10T03:10:22.496Z,98934.06
2022-11-10T03:12:50.188Z,98943.28
2022-11-10T03:15:16.754Z,98943.66
2022-11-10T03:17:43.363Z,98935.78
2022-11-10T03:20:10.411Z,98935.13
2022-11-10T03:22:37.043Z,98943.66
2022-11-10T03:25:04.147Z,98944.47
2022-11-10T03:27:30.716Z,98947.47
2022-11-10T03:29:57.253Z,98957.47
2022-11-10T03:32:23.868Z,98945.41
2022-11-10T03:34:50.453Z,98956.09
2022-11-10T03:37:17.041Z,98959.34
2022-11-10T03:39:43.617Z,98962.81
2022-11-10T03:42:10.340Z,98961.09
2022-11-10T03:44:36.907Z,98965.69
2022-11-10T03:47:04.042Z,98969.34
2022-11-10T03:49:31.303Z,98978.31
2022-11-10T03:51:57.977Z,98975.25
2022-11-10T03:54:24.605Z,98986.19
2022-11-10T03:56:51.199Z,98984.13
2022-11-10T03:59:17.895Z,98994.16
2022-11-10T04:01:44.486Z,98992.09
2022-11-10T04:04:31.312Z,98994.91
2022-11-10T04:07:13.094Z,99001.91
2022-11-10T04:09:42.228Z,99007.34
2022-11-10T04:12:25.117Z,99005.44
2022-11-10T04:15:07.198Z,99008.41
2022-11-10T04:17:33.795Z,99010.53
2022-11-10T04:20:02.451Z,99009.88
2022-11-10T04:22:47.462Z,99019.03
2022-11-10T04:25:14.093Z,99023.22
2022-11-10T04:27:40.691Z,99023.88
2022-11-10T04:30:07.753Z,99037.75
2022-11-10T04:32:34.905Z,99034.47
2022-11-10T04:35:01.472Z,99036.00
2022-11-10T04:37:28.070Z,99037.00
2022-11-10T04:39:57.869Z,99025.66
2022-11-10T04:42:24.422Z,99034.47
2022-11-10T04:44:51.006Z,99045.06
2022-11-10T04:47:17.579Z,99047.63
2022-11-10T04:49:44.149Z,99051.19
2022-11-10T04:52:10.747Z,99051.34
2022-11-10T04:54:37.593Z,99042.81
2022-11-10T04:57:04.163Z,99054.97
2022-11-10T04:59:30.761Z,99052.16
2022-11-10T05:01:57.324Z,99063.31
2022-11-10T05:04:24.048Z,99061.31
2022-11-10T05:06:50.866Z,99070.69
2022-11-10T05:09:17.503Z,99069.03
2022-11-10T05:11:44.417Z,99067.06
2022-11-10T05:14:11.010Z,99080.84
2022-11-10T05:16:38.065Z,99074.75
2022-11-10T05:19:04.701Z,99074.94
2022-11-10T05:21:31.312Z,99074.75
2022-11-10T05:23:57.913Z,99079.03
2022-11-10T05:26:24.556Z,99078.84
2022-11-10T05:28:51.156Z,99085.38
2022-11-10T05:31:17.813Z,99079.28
2022-11-10T05:33:44.948Z,99086.28
2022-11-10T05:36:11.616Z,99086.28
2022-11-10T05:38:43.269Z,99084.31
2022-11-10T05:41:11.102Z,99088.03
2022-11-10T05:43:38.040Z,99086.75
2022-11-10T05:46:04.649Z,99090.94
2022-11-10T05:48:31.243Z,99089.19
2022-11-10T05:50:57.841Z,99092.72
2022-11-10T05:53:24.783Z,99086.47
2022-11-10T05:55:51.608Z,99091.72
2022-11-10T05:58:18.193Z,99094.84
2022-11-10T06:00:44.869Z,99108.06
2022-11-10T06:03:17.766Z,99114.34
2022-11-10T06:05:45.013Z,99110.06
2022-11-10T06:08:11.621Z,99115.22
2022-11-10T06:10:39.151Z,99114.25
2022-11-10T06:13:05.830Z,99124.16
2022-11-10T06:15:32.658Z,99133.84
2022-11-10T06:17:59.560Z,99153.81
2022-11-10T06:20:27.951Z,99158.22
2022-11-10T06:23:00.014Z,99164.94
2022-11-10T06:25:28.530Z,99170.88
2022-11-10T06:27:55.389Z,99177.78
2022-11-10T06:30:22.472Z,99189.94
2022-11-10T06:32:49.321Z,99198.47
2022-11-10T06:35:16.116Z,99195.94
2022-11-10T06:37:42.932Z,99201.19
2022-11-10T06:40:12.734Z,99208.47
2022-11-10T06:42:39.663Z,99215.81
2022-11-10T06:45:06.582Z,99217.47
2022-11-10T06:47:33.111Z,99223.59
2022-11-10T06:49:59.670Z,99225.19
2022-11-10T06:52:26.238Z,99230.00
2022-11-10T06:54:52.832Z,99228.31
2022-11-10T06:57:19.622Z,99227.44
2022-11-10T06:59:46.176Z,99240.44
2022-11-10T07:02:14.616Z,99248.72
2022-11-10T07:04:42.677Z,99245.97
2022-11-10T07:07:10.194Z,99252.91
2022-11-10T07:09:37.829Z,99253.53
2022-11-10T07:12:05.339Z,99257.50
2022-11-10T07:14:31.939Z,99259.91
2022-11-10T07:16:58.513Z,99265.25
2022-11-10T07:19:25.171Z,99268.41
2022-11-10T07:21:51.862Z,99258.88
2022-11-10T07:24:18.447Z,99263.34
2022-11-10T07:26:45.469Z,99264.03
2022-11-10T07:29:12.100Z,99269.69
2022-11-10T07:31:38.662Z,99264.94
2022-11-10T07:34:05.281Z,99269.22
2022-11-10T07:36:31.919Z,99275.41
2022-11-10T07:38:58.477Z,99282.28
2022-11-10T07:41:25.081Z,99278.06
2022-11-10T07:43:51.641Z,99283.22
2022-11-10T07:46:18.207Z,99286.56
2022-11-10T07:48:44.828Z,99304.31
2022-11-10T07:51:11.428Z,99300.41
2022-11-10T07:53:38.785Z,99302.38
2022-11-10T07:56:05.834Z,99309.56
2022-11-10T07:58:33.149Z,99304.69
2022-11-10T08:00:59.997Z,99312.72
2022-11-10T08:03:26.786Z,99320.63
2022-11-10T08:05:53.492Z,99325.09
2022-11-10T08:08:20.034Z,99326.09
2022-11-10T08:10:46.625Z,99333.56
2022-11-10T08:13:13.658Z,99346.47
2022-11-10T08:15:41.295Z,99346.66
2022-11-10T08:18:17.172Z,99356.72
2022-11-10T08:20:44.285Z,99361.19
2022-11-10T08:23:14.655Z,99352.88
2022-11-10T08:25:41.601Z,99358.06
2022-11-10T08:28:12.259Z,99358.63
2022-11-10T08:30:41.349Z,99369.09
2022-11-10T08:33:10.589Z,99371.97
2022-11-10T08:35:40.690Z,99369.00
2022-11-10T08:38:10.167Z,99368.91
2022-11-10T08:40:41.381Z,99382.44
2022-11-10T08:43:08.701Z,99381.44
2022-11-10T08:45:36.875Z,99388.00
2022-11-10T08:48:06.398Z,99397.00
2022-11-10T08:50:33.129Z,99404.16
2022-11-10T08:53:02.568Z,99406.63
2022-11-10T08:55:29.535Z,99404.91
2022-11-10T08:58:05.869Z,99407.88
2022-11-10T09:00:32.893Z,99416.69
2022-11-10T09:03:08.618Z,99427.25
2022-11-10T09:05:36.128Z,99423.59
2022-11-10T09:08:04.431Z,99439.25
2022-11-10T09:10:32.454Z,99443.72
2022-11-10T09:13:01.385Z,99445.94
2022-11-10T09:15:29.002Z,99455.63
2022-11-10T09:17:59.483Z,99459.31
2022-11-10T09:20:28.118Z,99460.22
2022-11-10T09:22:54.974Z,99464.69
2022-11-10T09:25:22.069Z,99463.03
2022-11-10T09:27:48.671Z,99467.88
2022-11-10T09:30:17.940Z,99476.00
2022-11-10T09:32:46.759Z,99477.44
2022-11-10T09:35:13.752Z,99473.72
2022-11-10T09:37:40.531Z,99470.13
2022-11-10T09:40:13.137Z,99470.50
2022-11-10T09:42:41.465Z,99480.88
2022-11-10T09:45:22.047Z,99490.16
2022-11-10T09:48:10.841Z,99490.44
2022-11-10T09:50:44.262Z,99490.06
2022-11-10T09:53:16.757Z,99490.53
2022-11-10T09:55:48.755Z,99484.59
2022-11-10T09:58:16.519Z,99483.47
2022-11-10T10:00:51.178Z,99497.25
2022-11-10T10:03:24.581Z,99497.88
2022-11-10T10:06:05.468Z,99494.41
2022-11-10T10:08:36.796Z,99489.03
2022-11-10T10:11:31.231Z,99502.38
2022-11-10T10:14:14.157Z,99509.00
2022-11-10T10:17:03.759Z,99516.66
2022-11-10T10:20:02.769Z,99516.41
2022-11-10T10:22:45.777Z,99522.97
2022-11-10T10:25:20.945Z,99522.31
2022-11-10T10:27:51.219Z,99531.81
2022-11-10T10:30:20.323Z,99525.00
2022-11-10T10:32:47.190Z,99518.13
2022-11-10T10:35:16.414Z,99515.47
2022-11-10T10:37:51.240Z,99516.66
2022-11-10T10:40:23.424Z,99516.53
2022-11-10T10:42:50.790Z,99531.75
2022-11-10T10:45:23.940Z,99532.16
2022-11-10T10:47:53.536Z,99525.47
2022-11-10T10:50:23.325Z,99522.63
2022-11-10T10:53:06.942Z,99519.03
2022-11-10T10:55:36.059Z,99520.03
2022-11-10T10:58:06.870Z,99515.50
2022-11-10T11:00:45.418Z,99506.06
2022-11-10T11:03:24.342Z,99509.25
2022-11-10T11:06:08.356Z,99510.38
2022-11-10T11:08:35.103Z,99504.50
2022-11-10T11:11:10.828Z,99502.13
2022-11-10T11:13:37.476Z,99510.50
2022-11-10T11:16:07.909Z,99509.91
2022-11-10T11:18:39.057Z,99521.13
2022-11-10T11:21:33.608Z,99521.34
2022-11-10T11:24:12.641Z,99527.66
2022-11-10T11:26:54.473Z,99527.88
2022-11-10T11:29:21.014Z,99528.91
2022-11-10T11:32:04.020Z,99536.03
2022-11-10T11:34:46.853Z,99537.84
2022-11-10T11:37:34.234Z,99532.09
2022-11-10T11:40:31.423Z,99540.50
2022-11-10T11:43:08.057Z,99538.44
2022-11-10T11:45:55.459Z,99540.66
2022-11-10T11:48:33.600Z,99541.66
2022-11-10T11:51:15.764Z,99545.53
2022-11-10T11:54:05.637Z,99547.78
2022-11-10T11:56:39.246Z,99534.69
2022-11-10T11:59:20.939Z,99535.66
2022-11-10T12:01:58.472Z,99540.16
2022-11-10T12:04:44.326Z,99529.53
2022-11-10T12:07:35.634Z,99544.63
2022-11-10T12:10:15.081Z,99533.78
2022-11-10T12:12:51.775Z,99545.03
2022-11-10T12:15:48.997Z,99551.97
2022-11-10T12:18:32.182Z,99544.63
2022-11-10T12:21:33.094Z,99552.00
2022-11-10T12:24:27.264Z,99549.94
2022-11-10T12:27:13.152Z,99544.66
2022-11-10T12:29:46.022Z,99548.94
2022-11-10T12:32:20.473Z,99549.94
2022-11-10T12:34:53.734Z,99556.06
2022-11-10T12:37:28.363Z,99551.94
2022-11-10T12:40:11.293Z,99549.09
2022-11-10T12:42:41.637Z,99550.91
2022-11-10T12:45:19.106Z,99550.28
2022-11-10T12:47:47.441Z,99557.44
2022-11-10T12:50:29.441Z,99568.66
2022-11-10T12:53:03.208Z,99574.63
2022-11-10T12:55:41.632Z,99578.72
2022-11-10T12:58:13.303Z,99574.81
2022-11-10T13:00:54.265Z,99570.50
2022-11-10T13:03:37.361Z,99581.50
2022-11-10T13:06:07.181Z,99580.88
2022-11-10T13:08:47.107Z,99575.47
2022-11-10T13:11:13.744Z,99571.34
2022-11-10T13:13:42.140Z,99577.03
2022-11-10T13:16:11.049Z,99577.25
2022-11-10T13:18:37.588Z,99573.75
2022-11-10T13:21:04.314Z,99565.19
2022-11-10T13:23:33.210Z,99567.75
2022-11-10T13:26:05.765Z,99570.25
2022-11-10T13:28:47.786Z,99569.78
2022-11-10T13:31:31.055Z,99573.22
2022-11-10T13:34:09.621Z,99567.34
2022-11-10T13:36:51.635Z,99564.84
2022-11-10T13:39:19.214Z,99558.66
2022-11-10T13:41:50.541Z,99557.38
2022-11-10T13:44:23.954Z,99568.38
2022-11-10T13:47:35.023Z,99575.28
2022-11-10T13:50:21.071Z,99581.38
2022-11-10T13:53:08.571Z,99584.28
2022-11-10T13:55:52.187Z,99587.50
2022-11-10T13:58:25.203Z,99597.94
2022-11-10T14:01:26.216Z,99591.94
2022-11-10T14:03:57.370Z,99579.69
2022-11-10T14:06:30.944Z,99586.00
2022-11-10T14:09:11.429Z,99587.28
2022-11-10T14:11:50.012Z,99583.13
2022-11-10T14:14:24.610Z,99593.84
2022-11-10T14:16:53.168Z,99589.31
2022-11-10T14:19:39.481Z,99584.72
2022-11-10T14:22:21.918Z,99593.22
2022-11-10T14:24:54.244Z,99592.63
2022-11-10T14:27:25.953Z,99591.59
2022-11-10T14:30:08.002Z,99598.78
2022-11-10T14:32:37.849Z,99597.25
2022-11-10T14:35:05.066Z,99600.16
2022-11-10T14:37:31.871Z,99607.59
2022-11-10T14:40:01.772Z,99605.03
2022-11-10T14:42:32.444Z,99605.13
2022-11-10T14:45:14.681Z,99605.38
2022-11-10T14:47:41.614Z,99605.63
2022-11-10T14:50:20.087Z,99606.63
2022-11-10T14:52:49.817Z,99608.34
2022-11-10T14:55:25.080Z,99613.94
2022-11-10T14:58:03.180Z,99613.56
2022-11-10T15:00:35.471Z,99608.81
2022-11-10T15:03:03.856Z,99607.25
2022-11-10T15:05:31.678Z,99607.66
2022-11-10T15:07:58.844Z,99612.63
2022-11-10T15:10:28.269Z,99611.06
2022-11-10T15:13:00.340Z,99611.19
2022-11-10T15:15:27.156Z,99603.47
2022-11-10T15:17:54.613Z,99609.94
2022-11-10T15:20:37.867Z,99619.50
2022-11-10T15:23:14.289Z,99623.56
2022-11-10T15:25:42.307Z,99623.03
2022-11-10T15:28:36.226Z,99638.91
2022-11-10T15:31:07.155Z,99628.91
2022-11-10T15:33:36.897Z,99628.75
2022-11-10T15:36:19.834Z,99633.88
2022-11-10T15:39:01.941Z,99634.09
2022-11-10T15:41:32.690Z,99645.72
2022-11-10T15:44:19.414Z,99638.78
2022-11-10T15:46:47.063Z,99650.78
2022-11-10T15:49:28.945Z,99653.00
2022-11-10T15:51:59.194Z,99648.66
2022-11-10T15:54:29.210Z,99656.16
2022-11-10T15:56:55.835Z,99662.09
2022-11-10T15:59:22.510Z,99668.34
2022-11-10T16:01:49.659Z,99679.88
2022-11-10T16:04:17.017Z,99673.91
2022-11-10T16:06:43.682Z,99685.88
2022-11-10T16:09:12.673Z,99683.91
2022-11-10T16:11:43.957Z,99692.97
2022-11-10T16:14:14.506Z,99693.31
2022-11-10T16:16:42.032Z,99697.09
2022-11-10T16:19:11.354Z,99694.91
2022-11-10T16:21:38.679Z,99697.59
2022-11-10T16:24:08.965Z,99699.44
2022-11-10T16:26:35.579Z,99711.16
2022-11-10T16:29:02.257Z,99713.94
2022-11-10T16:31:30.295Z,99713.88
2022-11-10T16:33:56.885Z,99726.69
2022-11-10T16:36:27.892Z,99729.19
2022-11-10T16:38:55.119Z,99734.13
2022-11-10T16:41:22.420Z,99730.66
2022-11-10T16:43:52.574Z,99733.72
2022-11-10T16:46:23.529Z,99730.84
2022-11-10T16:48:53.443Z,99735.09
2022-11-10T16:51:28.792Z,99738.94
2022-11-10T16:53:55.433Z,99747.41
2022-11-10T16:56:23.089Z,99760.72
2022-11-10T16:58:49.677Z,99765.16
2022-11-10T17:01:20.775Z,99768.19
2022-11-10T17:03:51.310Z,99770.91
2022-11-10T17:06:19.812Z,99780.00
2022-11-10T17:08:48.795Z,99781.59
2022-11-10T17:11:16.415Z,99782.25
2022-11-10T17:13:43.085Z,99784.13
2022-11-10T17:16:28.730Z,99791.25
2022-11-10T17:18:57.872Z,99791.34
2022-11-10T17:21:28.604Z,99791.44
2022-11-10T17:24:00.670Z,99798.59
2022-11-10T17:26:28.286Z,99806.97
2022-11-10T17:28:55.021Z,99810.03
2022-11-10T17:31:21.557Z,99811.25
2022-11-10T17:33:48.215Z,99811.56
2022-11-10T17:36:19.212Z,99808.63
2022-11-10T17:38:46.138Z,99812.16
2022-11-10T17:41:16.336Z,99811.56
2022-11-10T17:43:45.792Z,99816.56
2022-11-10T17:46:14.643Z,99813.91
2022-11-10T17:48:41.384Z,99821.13
2022-11-10T17:51:18.110Z,99831.00
2022-11-10T17:53:45.148Z,99828.19
2022-11-10T17:56:11.860Z,99829.03
2022-11-10T17:58:38.659Z,99830.19
2022-11-10T18:01:22.373Z,99834.00
2022-11-10T18:03:49.995Z,99838.59
2022-11-10T18:06:18.715Z,99847.84
2022-11-10T18:08:45.869Z,99853.53
2022-11-10T18:11:16.002Z,99857.50
2022-11-10T18:13:43.692Z,99865.13
2022-11-10T18:16:12.881Z,99875.50
2022-11-10T18:18:39.598Z,99881.72
2022-11-10T18:21:08.445Z,99873.81
2022-11-10T18:23:35.020Z,99882.91
2022-11-10T18:26:04.962Z,99878.16
2022-11-10T18:28:31.563Z,99878.47
2022-11-10T18:30:58.184Z,99889.19
2022-11-10T18:33:25.086Z,99891.31
2022-11-10T18:35:52.358Z,99888.44
2022-11-10T18:38:19.018Z,99894.69
2022-11-10T18:40:45.588Z,99885.16
2022-11-10T18:43:12.208Z,99887.63
2022-11-10T18:45:39.055Z,99885.78
2022-11-10T18:48:06.021Z,99884.50
2022-11-10T18:50:32.646Z,99882.03
2022-11-10T18:52:59.504Z,99881.69
2022-11-10T18:55:26.301Z,99883.00
2022-11-10T18:57:52.949Z,99883.00
2022-11-10T19:00:19.780Z,99871.00
2022-11-10T19:02:46.439Z,99876.25
2022-11-10T19:05:13.156Z,99874.81
2022-11-10T19:07:39.749Z,99875.97
2022-11-10T19:10:06.541Z,99874.13
2022-11-10T19:12:33.166Z,99872.47
2022-11-10T19:14:59.712Z,99875.44
2022-11-10T19:17:26.295Z,99888.59
2022-11-10T19:19:56.383Z,99889.41
2022-11-10T19:22:26.753Z,99896.25
2022-11-10T19:25:07.670Z,99897.75
2022-11-10T19:27:35.870Z,99912.38
2022-11-10T19:30:02.497Z,99920.72
2022-11-10T19:32:29.830Z,99921.56
2022-11-10T19:34:56.483Z,99924.56
2022-11-10T19:37:23.080Z,99926.66
2022-11-10T19:39:49.622Z,99924.28
2022-11-10T19:42:16.189Z,99929.91
2022-11-10T19:44:42.772Z,99929.66
2022-11-10T19:47:09.329Z,99930.69
2022-11-10T19:49:38.573Z,99935.31
2022-11-10T19:52:05.278Z,99936.81
2022-11-10T19:54:31.918Z,99939.84
2022-11-10T19:56:58.574Z,99931.25
2022-11-10T19:59:25.218Z,99940.66
2022-11-10T20:01:52.228Z,99933.59
2022-11-10T20:04:18.939Z,99941.50
2022-11-10T20:06:45.577Z,99943.97
2022-11-10T20:09:12.326Z,99942.16
2022-11-10T20:11:38.986Z,99948.97
2022-11-10T20:14:06.933Z,99950.06
2022-11-10T20:16:33.662Z,99940.81
2022-11-10T20:19:00.213Z,99940.75
2022-11-10T20:21:26.869Z,99944.88
2022-11-10T20:23:55.077Z,99947.34
2022-11-10T20:26:22.390Z,99955.44
2022-11-10T20:28:49.932Z,99958.63
2022-11-10T20:31:20.698Z,99958.41
2022-11-10T20:33:48.577Z,99960.09
2022-11-10T20:36:20.871Z,99961.97
2022-11-10T20:38:49.377Z,99960.38
2022-11-10T20:41:19.770Z,99961.50
2022-11-10T20:43:47.275Z,99961.19
2022-11-10T20:46:52.986Z,99958.56
2022-11-10T20:49:07.356Z,99966.16
2022-11-10T20:51:33.988Z,99970.31
2022-11-10T20:54:01.276Z,99981.50
2022-11-10T20:56:30.023Z,99984.41
2022-11-10T20:58:57.631Z,99993.50
2022-11-10T21:01:24.706Z,99993.56
2022-11-10T21:03:51.408Z,99979.38
2022-11-10T21:06:19.256Z,99968.34
2022-11-10T21:08:45.873Z,99972.97
2022-11-10T21:11:32.799Z,99968.56
2022-11-10T21:13:59.789Z,99966.78
2022-11-10T21:16:26.364Z,99962.72
2022-11-10T21:18:56.343Z,99953.56
2022-11-10T21:21:27.832Z,99965.13
2022-11-10T21:23:57.346Z,99966.75
2022-11-10T21:26:24.560Z,99974.78
2022-11-10T21:28:51.193Z,99971.56
2022-11-10T21:31:18.706Z,99976.25
2022-11-10T21:33:45.581Z,99983.75
2022-11-10T21:36:12.210Z,99978.38
2022-11-10T21:38:38.838Z,99979.25
2022-11-10T21:41:06.036Z,99996.13
2022-11-10T21:43:32.682Z,99987.88
2022-11-10T21:46:01.744Z,99989.78
2022-11-10T21:48:28.318Z,99987.44
2022-11-10T21:51:00.597Z,99993.50
2022-11-10T21:53:27.284Z,99995.34
2022-11-10T21:56:04.954Z,100000.50
2022-11-10T21:58:33.407Z,100002.41
2022-11-10T22:01:02.157Z,100003.59
2022-11-10T22:03:30.832Z,100006.63
2022-11-10T22:06:07.016Z,100005.19
2022-11-10T22:08:35.169Z,99999.38
2022-11-10T22:11:17.282Z,100001.63
2022-11-10T22:13:59.355Z,100010.59
2022-11-10T22:16:43.945Z,100008.38
2022-11-10T22:19:10.540Z,100001.84
2022-11-10T22:21:37.116Z,100000.56
2022-11-10T22:24:19.118Z,100007.75
2022-11-10T22:26:45.675Z,100019.38
2022-11-10T22:29:12.429Z,100018.56
2022-11-10T22:31:39.012Z,100009.56
2022-11-10T22:34:05.625Z,100006.88
2022-11-10T22:36:32.504Z,100008.22
2022-11-10T22:39:03.365Z,100017.47
2022-11-10T22:41:45.640Z,100022.06
2022-11-10T22:44:13.843Z,100024.69
2022-11-10T22:46:45.784Z,100035.84
2022-11-10T22:49:14.321Z,100039.97
2022-11-10T22:51:41.736Z,100044.13
2022-11-10T22:54:12.237Z,100035.66
2022-11-10T22:56:39.756Z,100026.41
2022-11-10T22:59:06.929Z,100020.59
2022-11-10T23:01:34.319Z,100026.66
2022-11-10T23:04:02.149Z,100029.13
2022-11-10T23:06:29.623Z,100031.09
2022-11-10T23:08:57.367Z,100034.00
2022-11-10T23:11:27.501Z,100040.47
2022-11-10T23:13:54.101Z,100042.09
2022-11-10T23:16:25.836Z,100037.41
2022-11-10T23:18:54.249Z,100043.06
2022-11-10T23:21:23.968Z,100037.88
2022-11-10T23:23:51.239Z,100039.72
2022-11-10T23:26:20.918Z,100040.81
2022-11-10T23:28:47.908Z,100033.25
2022-11-10T23:31:16.788Z,100030.09
2022-11-10T23:33:44.841Z,100021.25
2022-11-10T23:36:13.370Z,100022.47
2022-11-10T23:38:43.234Z,100019.75
2022-11-10T23:41:15.665Z,100021.50
2022-11-10T23:43:42.434Z,100018.88
2022-11-10T23:46:10.366Z,100024.00
2022-11-10T23:48:38.439Z,100018.38
2022-11-10T23:51:06.968Z,100024.75
2022-11-10T23:53:33.972Z,100035.47
2022-11-10T23:56:02.939Z,100029.53
2022-11-10T23:58:30.333Z,100032.16
